createdAt,value
2023-02-01T00:04:28.500Z,87.54
2023-02-01T00:09:21.280Z,87.53
2023-02-01T00:14:18.304Z,87.55
2023-02-01T00:19:20.689Z,87.45
2023-02-01T00:24:13.872Z,87.56
2023-02-01T00:29:09.672Z,87.36
2023-02-01T00:34:02.381Z,87.52
2023-02-01T00:38:55.160Z,87.58
2023-02-01T00:43:48.959Z,87.97
2023-02-01T00:48:42.542Z,87.94
2023-02-01T00:53:35.876Z,87.89
2023-02-01T00:58:29.498Z,88.01
2023-02-01T01:03:22.320Z,88.51
2023-02-01T01:08:16.643Z,88.52
2023-02-01T01:13:10.120Z,88.50
2023-02-01T01:18:02.902Z,88.13
2023-02-01T01:22:55.899Z,87.89
2023-02-01T01:27:49.162Z,87.97
2023-02-01T01:32:41.940Z,87.66
2023-02-01T01:37:36.547Z,87.61
2023-02-01T01:42:29.727Z,87.61
2023-02-01T01:47:24.791Z,87.71
2023-02-01T01:52:17.878Z,87.40
2023-02-01T01:57:26.243Z,87.60
2023-02-01T02:02:19.727Z,87.02
2023-02-01T02:07:20.357Z,87.48
2023-02-01T02:12:13.189Z,87.17
2023-02-01T02:17:12.062Z,86.83
2023-02-01T02:22:35.338Z,86.88
2023-02-01T02:27:59.246Z,86.55
2023-02-01T02:33:13.862Z,86.56
2023-02-01T02:38:07.006Z,86.27
2023-02-01T02:43:31.196Z,85.99
2023-02-01T02:48:44.454Z,85.70
2023-02-01T02:54:16.826Z,85.55
2023-02-01T02:59:34.219Z,85.80
2023-02-01T03:04:27.322Z,85.68
2023-02-01T03:09:26.263Z,85.35
2023-02-01T03:14:22.380Z,85.21
2023-02-01T03:19:24.574Z,85.28
2023-02-01T03:24:35.170Z,85.49
2023-02-01T03:29:39.133Z,85.16
2023-02-01T03:34:32.090Z,84.97
2023-02-01T03:39:41.693Z,85.05
2023-02-01T03:44:44.151Z,85.37
2023-02-01T03:49:54.113Z,85.52
2023-02-01T03:54:48.678Z,85.65
2023-02-01T03:59:49.312Z,85.82
2023-02-01T04:04:42.570Z,85.89
2023-02-01T04:09:39.322Z,86.38
2023-02-01T04:14:32.135Z,86.20
2023-02-01T04:19:24.948Z,86.28
2023-02-01T04:24:17.745Z,86.51
2023-02-01T04:29:11.558Z,86.40
2023-02-01T04:34:04.813Z,86.36
2023-02-01T04:38:57.588Z,86.26
2023-02-01T04:43:52.527Z,86.14
2023-02-01T04:48:45.301Z,85.93
2023-02-01T04:53:38.872Z,86.07
2023-02-01T04:58:32.287Z,85.52
2023-02-01T05:03:25.100Z,85.61
2023-02-01T05:08:19.409Z,85.27
2023-02-01T05:13:30.061Z,85.13
2023-02-01T05:18:22.997Z,84.56
2023-02-01T05:23:15.823Z,84.85
2023-02-01T05:28:12.301Z,84.64
2023-02-01T05:33:06.479Z,84.41
2023-02-01T05:37:59.288Z,84.44
2023-02-01T05:42:56.027Z,84.38
2023-02-01T05:47:48.939Z,84.12
2023-02-01T05:52:42.120Z,84.33
2023-02-01T05:57:35.059Z,84.17
2023-02-01T06:02:27.930Z,83.99
2023-02-01T06:07:20.787Z,84.02
2023-02-01T06:12:13.752Z,83.77
2023-02-01T06:17:07.396Z,83.67
2023-02-01T06:22:00.192Z,83.82
2023-02-01T06:26:53.088Z,83.53
2023-02-01T06:31:46.876Z,83.44
2023-02-01T06:36:39.746Z,83.23
2023-02-01T06:41:32.785Z,83.43
2023-02-01T06:46:25.750Z,82.98
2023-02-01T06:51:24.240Z,83.23
2023-02-01T06:56:17.139Z,82.95
2023-02-01T07:01:11.605Z,82.94
2023-02-01T07:06:05.476Z,82.97
2023-02-01T07:10:58.396Z,82.72
2023-02-01T07:15:51.199Z,82.33
2023-02-01T07:20:44.089Z,82.39
2023-02-01T07:25:37.663Z,82.37
2023-02-01T07:30:30.555Z,82.08
2023-02-01T07:35:23.386Z,81.96
2023-02-01T07:40:16.361Z,82.15
2023-02-01T07:45:21.011Z,82.18
2023-02-01T07:50:14.533Z,82.18
2023-02-01T07:55:08.106Z,82.07
2023-02-01T08:00:21.468Z,82.06
2023-02-01T08:05:14.849Z,81.95
2023-02-01T08:10:11.763Z,81.81
2023-02-01T08:15:05.739Z,81.93
2023-02-01T08:19:58.538Z,82.23
2023-02-01T08:24:51.585Z,82.34
2023-02-01T08:29:44.428Z,82.62
2023-02-01T08:34:37.241Z,82.93
2023-02-01T08:39:30.252Z,83.03
2023-02-01T08:44:23.553Z,83.13
2023-02-01T08:49:18.829Z,83.58
2023-02-01T08:54:11.653Z,83.72
2023-02-01T08:59:04.568Z,83.91
2023-02-01T09:03:57.449Z,84.00
2023-02-01T09:08:50.365Z,84.34
2023-02-01T09:13:43.914Z,84.34
2023-02-01T09:18:41.967Z,84.58
2023-02-01T09:23:43.685Z,84.36
2023-02-01T09:28:37.821Z,83.95
2023-02-01T09:33:30.999Z,83.64
2023-02-01T09:38:23.885Z,83.45
2023-02-01T09:43:19.396Z,82.82
2023-02-01T09:48:37.766Z,82.73
2023-02-01T09:54:04.464Z,81.97
2023-02-01T09:59:12.903Z,81.45
2023-02-01T10:04:11.121Z,81.01
2023-02-01T10:09:17.368Z,80.37
2023-02-01T10:14:23.183Z,79.77
2023-02-01T10:19:24.287Z,79.83
2023-02-01T10:24:48.158Z,79.39
2023-02-01T10:29:44.509Z,79.01
2023-02-01T10:34:38.977Z,79.17
2023-02-01T10:39:31.904Z,79.14
2023-02-01T10:44:28.869Z,79.00
2023-02-01T10:49:53.123Z,78.78
2023-02-01T10:54:45.910Z,79.05
2023-02-01T10:59:39.598Z,78.66
2023-02-01T11:04:37.745Z,78.93
2023-02-01T11:09:30.748Z,78.80
2023-02-01T11:14:27.445Z,78.44
2023-02-01T11:19:20.349Z,78.43
2023-02-01T11:24:26.556Z,77.94
2023-02-01T11:29:23.357Z,78.17
2023-02-01T11:34:23.365Z,78.25
2023-02-01T11:39:32.204Z,78.04
2023-02-01T11:44:34.116Z,77.96
2023-02-01T11:49:29.673Z,77.86
2023-02-01T11:54:46.768Z,77.57
2023-02-01T12:00:17.360Z,77.57
2023-02-01T12:05:49.850Z,77.95
2023-02-01T12:10:55.365Z,77.98
2023-02-01T12:16:35.450Z,77.92
2023-02-01T12:21:49.126Z,77.93
2023-02-01T12:27:00.659Z,77.83
2023-02-01T12:32:12.079Z,77.66
2023-02-01T12:37:14.601Z,78.06
2023-02-01T12:42:32.934Z,78.19
2023-02-01T12:47:37.683Z,78.03
2023-02-01T12:52:52.279Z,78.33
2023-02-01T12:57:50.671Z,78.70
2023-02-01T13:02:46.825Z,79.17
2023-02-01T13:08:18.471Z,79.24
2023-02-01T13:13:40.128Z,79.36
2023-02-01T13:18:41.790Z,79.37
2023-02-01T13:23:40.248Z,79.42
2023-02-01T13:28:48.897Z,79.40
2023-02-01T13:34:00.747Z,79.19
2023-02-01T13:39:29.132Z,79.39
2023-02-01T13:44:33.239Z,79.53
2023-02-01T13:49:30.019Z,79.30
2023-02-01T13:54:30.823Z,79.43
2023-02-01T13:59:51.858Z,79.56
2023-02-01T14:04:51.624Z,79.43
2023-02-01T14:09:44.469Z,79.55
2023-02-01T14:14:37.328Z,79.68
2023-02-01T14:19:35.238Z,79.77
2023-02-01T14:24:29.499Z,79.82
2023-02-01T14:29:36.287Z,79.79
2023-02-01T14:34:38.930Z,79.74
2023-02-01T14:39:36.596Z,79.78
2023-02-01T14:44:32.768Z,79.73
2023-02-01T14:49:27.217Z,79.94
2023-02-01T14:54:21.915Z,80.17
2023-02-01T14:59:19.327Z,80.23
2023-02-01T15:04:13.297Z,79.99
2023-02-01T15:09:15.549Z,80.18
2023-02-01T15:14:16.704Z,80.19
2023-02-01T15:19:16.119Z,79.95
2023-02-01T15:24:31.289Z,80.11
2023-02-01T15:29:28.977Z,79.98
2023-02-01T15:34:23.297Z,79.87
2023-02-01T15:39:19.137Z,79.85
2023-02-01T15:44:36.373Z,80.09
2023-02-01T15:49:35.389Z,80.02
2023-02-01T15:54:47.086Z,79.94
2023-02-01T15:59:45.703Z,79.98
2023-02-01T16:04:51.976Z,79.90
2023-02-01T16:09:57.097Z,80.12
2023-02-01T16:14:49.896Z,80.21
2023-02-01T16:19:42.704Z,80.18
2023-02-01T16:24:35.553Z,80.40
2023-02-01T16:29:28.363Z,80.13
2023-02-01T16:34:22.008Z,80.32
2023-02-01T16:39:16.061Z,80.60
2023-02-01T16:44:08.929Z,80.66
2023-02-01T16:49:02.149Z,80.70
2023-02-01T16:53:55.506Z,80.56
2023-02-01T16:58:49.382Z,80.67
2023-02-01T17:03:44.230Z,80.86
2023-02-01T17:08:41.199Z,80.67
2023-02-01T17:13:34.956Z,80.83
2023-02-01T17:18:31.791Z,80.79
2023-02-01T17:23:24.976Z,81.06
2023-02-01T17:28:17.756Z,80.99
2023-02-01T17:33:44.325Z,80.96
2023-02-01T17:38:37.791Z,81.07
2023-02-01T17:43:31.148Z,80.89
2023-02-01T17:48:24.487Z,80.96
2023-02-01T17:53:20.396Z,80.81
2023-02-01T17:58:15.141Z,80.89
2023-02-01T18:03:09.398Z,80.88
2023-02-01T18:08:02.189Z,80.94
2023-02-01T18:12:56.009Z,81.06
2023-02-01T18:17:49.186Z,81.52
2023-02-01T18:22:42.015Z,81.47
2023-02-01T18:27:34.838Z,81.64
2023-02-01T18:32:27.595Z,81.56
2023-02-01T18:37:20.989Z,81.21
2023-02-01T18:42:13.765Z,81.20
2023-02-01T18:47:06.606Z,81.29
2023-02-01T18:52:00.206Z,81.93
2023-02-01T18:56:53.493Z,82.21
2023-02-01T19:01:46.979Z,82.81
2023-02-01T19:06:39.864Z,82.83
2023-02-01T19:11:32.673Z,83.25
2023-02-01T19:16:25.490Z,83.26
2023-02-01T19:21:19.153Z,83.01
2023-02-01T19:26:20.959Z,83.03
2023-02-01T19:31:13.880Z,82.95
2023-02-01T19:36:10.035Z,82.93
2023-02-01T19:41:02.966Z,82.86
2023-02-01T19:45:57.579Z,82.72
2023-02-01T19:50:50.462Z,82.66
2023-02-01T19:55:47.276Z,82.83
2023-02-01T20:00:39.266Z,82.89
2023-02-01T20:05:32.159Z,82.82
2023-02-01T20:10:24.984Z,82.87
2023-02-01T20:15:17.999Z,83.12
2023-02-01T20:20:11.753Z,82.99
2023-02-01T20:25:04.754Z,83.02
2023-02-01T20:29:58.720Z,83.33
2023-02-01T20:34:53.693Z,83.46
2023-02-01T20:39:46.508Z,83.41
2023-02-01T20:44:39.326Z,83.14
2023-02-01T20:49:32.532Z,83.39
2023-02-01T20:54:26.303Z,83.08
2023-02-01T20:59:19.499Z,83.30
2023-02-01T21:04:12.310Z,83.00
2023-02-01T21:09:05.173Z,83.20
2023-02-01T21:13:59.099Z,83.36
2023-02-01T21:18:53.768Z,83.59
2023-02-01T21:23:47.805Z,83.37
2023-02-01T21:28:40.637Z,83.60
2023-02-01T21:33:33.587Z,83.71
2023-02-01T21:38:26.416Z,83.35
2023-02-01T21:43:19.187Z,83.41
2023-02-01T21:48:12.304Z,83.22
2023-02-01T21:53:05.280Z,83.35
2023-02-01T21:57:58.180Z,83.33
2023-02-01T22:02:51.264Z,83.17
2023-02-01T22:07:44.122Z,83.06
2023-02-01T22:12:36.892Z,83.03
2023-02-01T22:17:31.634Z,83.09
2023-02-01T22:22:24.756Z,83.03
2023-02-01T22:27:18.040Z,82.88
2023-02-01T22:32:12.394Z,82.87
2023-02-01T22:37:05.460Z,82.73
2023-02-01T22:41:58.837Z,82.76
2023-02-01T22:46:52.135Z,82.62
2023-02-01T22:51:45.227Z,82.52
2023-02-01T22:56:39.245Z,82.87
2023-02-01T23:01:34.937Z,82.69
2023-02-01T23:06:28.936Z,82.79
2023-02-01T23:11:24.166Z,82.99
2023-02-01T23:16:17.262Z,83.50
2023-02-01T23:21:17.258Z,83.60
2023-02-01T23:26:10.259Z,83.79
2023-02-01T23:31:09.104Z,83.86
2023-02-01T23:36:03.637Z,83.82
2023-02-01T23:41:01.208Z,83.91
2023-02-01T23:45:58.636Z,84.25
2023-02-01T23:50:51.458Z,84.68
2023-02-01T23:55:44.244Z,84.82
